sensor_id;sensor_type;location;lat;lon;timestamp;P1;durP1;ratioP1;P2;durP2;ratioP2
15706;SDS011;7953;54.302;10.128;2024-02-23T00:01:48;3.80;;;1.00;;
15706;SDS011;7953;54.302;10.128;2024-02-23T00:04:17;2.03;;;0.70;;
15706;SDS011;7953;54.302;10.128;2024-02-23T00:06:44;0.60;;;0.60;;
15706;SDS011;7953;54.302;10.128;2024-02-23T00:09:11;0.87;;;0.60;;
15706;SDS011;7953;54.302;10.128;2024-02-23T00:11:39;0.93;;;0.50;;
15706;SDS011;7953;54.302;10.128;2024-02-23T00:14:09;1.27;;;0.63;;
15706;SDS011;7953;54.302;10.128;2024-02-23T00:16:39;0.87;;;0.50;;
15706;SDS011;7953;54.302;10.128;2024-02-23T00:19:07;1.80;;;0.40;;
15706;SDS011;7953;54.302;10.128;2024-02-23T00:21:36;3.87;;;0.63;;
15706;SDS011;7953;54.302;10.128;2024-02-23T00:24:03;3.00;;;0.63;;
15706;SDS011;7953;54.302;10.128;2024-02-23T00:26:30;0.80;;;0.43;;
15706;SDS011;7953;54.302;10.128;2024-02-23T00:28:57;3.40;;;0.70;;
15706;SDS011;7953;54.302;10.128;2024-02-23T00:31:24;1.27;;;0.53;;
15706;SDS011;7953;54.302;10.128;2024-02-23T00:33:51;0.57;;;0.57;;
15706;SDS011;7953;54.302;10.128;2024-02-23T00:36:18;1.43;;;0.67;;
15706;SDS011;7953;54.302;10.128;2024-02-23T00:38:46;1.10;;;0.70;;
15706;SDS011;7953;54.302;10.128;2024-02-23T00:41:13;2.10;;;0.70;;
15706;SDS011;7953;54.302;10.128;2024-02-23T00:43:40;0.70;;;0.57;;
15706;SDS011;7953;54.302;10.128;2024-02-23T00:46:07;0.50;;;0.50;;
15706;SDS011;7953;54.302;10.128;2024-02-23T00:48:34;4.17;;;0.70;;
15706;SDS011;7953;54.302;10.128;2024-02-23T00:51:01;0.57;;;0.57;;
15706;SDS011;7953;54.302;10.128;2024-02-23T00:53:30;0.70;;;0.40;;
15706;SDS011;7953;54.302;10.128;2024-02-23T00:55:59;1.70;;;0.70;;
15706;SDS011;7953;54.302;10.128;2024-02-23T00:58:25;2.83;;;1.47;;
15706;SDS011;7953;54.302;10.128;2024-02-23T01:00:52;1.03;;;0.43;;
15706;SDS011;7953;54.302;10.128;2024-02-23T01:03:19;2.07;;;0.50;;
15706;SDS011;7953;54.302;10.128;2024-02-23T01:05:46;1.37;;;0.60;;
15706;SDS011;7953;54.302;10.128;2024-02-23T01:08:13;0.47;;;0.40;;
15706;SDS011;7953;54.302;10.128;2024-02-23T01:10:39;1.07;;;0.47;;
15706;SDS011;7953;54.302;10.128;2024-02-23T01:13:08;0.67;;;0.67;;
15706;SDS011;7953;54.302;10.128;2024-02-23T01:15:35;1.10;;;0.60;;
15706;SDS011;7953;54.302;10.128;2024-02-23T01:18:02;0.30;;;0.30;;
15706;SDS011;7953;54.302;10.128;2024-02-23T01:20:30;0.30;;;0.30;;
15706;SDS011;7953;54.302;10.128;2024-02-23T01:22:57;1.53;;;1.10;;
15706;SDS011;7953;54.302;10.128;2024-02-23T01:25:24;0.87;;;0.87;;
15706;SDS011;7953;54.302;10.128;2024-02-23T01:27:51;1.03;;;0.40;;
15706;SDS011;7953;54.302;10.128;2024-02-23T01:30:19;0.60;;;0.30;;
15706;SDS011;7953;54.302;10.128;2024-02-23T01:32:46;2.70;;;0.30;;
15706;SDS011;7953;54.302;10.128;2024-02-23T01:35:13;0.77;;;0.37;;
15706;SDS011;7953;54.302;10.128;2024-02-23T01:37:40;1.80;;;0.40;;
15706;SDS011;7953;54.302;10.128;2024-02-23T01:40:07;0.63;;;0.63;;
15706;SDS011;7953;54.302;10.128;2024-02-23T01:42:34;0.30;;;0.30;;
15706;SDS011;7953;54.302;10.128;2024-02-23T01:45:01;0.40;;;0.40;;
15706;SDS011;7953;54.302;10.128;2024-02-23T01:47:30;0.57;;;0.37;;
15706;SDS011;7953;54.302;10.128;2024-02-23T01:49:57;0.43;;;0.40;;
15706;SDS011;7953;54.302;10.128;2024-02-23T01:52:25;0.30;;;0.30;;
15706;SDS011;7953;54.302;10.128;2024-02-23T01:54:52;1.33;;;0.30;;
15706;SDS011;7953;54.302;10.128;2024-02-23T01:57:20;0.40;;;0.40;;
15706;SDS011;7953;54.302;10.128;2024-02-23T01:59:49;4.67;;;0.47;;
15706;SDS011;7953;54.302;10.128;2024-02-23T02:02:16;1.43;;;0.60;;
15706;SDS011;7953;54.302;10.128;2024-02-23T02:04:44;0.40;;;0.40;;
15706;SDS011;7953;54.302;10.128;2024-02-23T02:07:11;4.67;;;0.57;;
15706;SDS011;7953;54.302;10.128;2024-02-23T02:09:38;0.30;;;0.30;;
15706;SDS011;7953;54.302;10.128;2024-02-23T02:12:05;1.03;;;0.50;;
15706;SDS011;7953;54.302;10.128;2024-02-23T02:14:32;0.30;;;0.30;;
15706;SDS011;7953;54.302;10.128;2024-02-23T02:16:59;2.33;;;0.67;;
15706;SDS011;7953;54.302;10.128;2024-02-23T02:19:26;2.77;;;0.47;;
15706;SDS011;7953;54.302;10.128;2024-02-23T02:21:54;1.17;;;0.40;;
15706;SDS011;7953;54.302;10.128;2024-02-23T02:24:22;0.33;;;0.33;;
15706;SDS011;7953;54.302;10.128;2024-02-23T02:26:49;0.40;;;0.40;;
15706;SDS011;7953;54.302;10.128;2024-02-23T02:29:15;0.43;;;0.40;;
15706;SDS011;7953;54.302;10.128;2024-02-23T02:31:42;0.87;;;0.40;;
15706;SDS011;7953;54.302;10.128;2024-02-23T02:34:09;1.33;;;0.50;;
15706;SDS011;7953;54.302;10.128;2024-02-23T02:36:38;3.20;;;0.57;;
15706;SDS011;7953;54.302;10.128;2024-02-23T02:39:06;1.20;;;0.40;;
15706;SDS011;7953;54.302;10.128;2024-02-23T02:41:33;1.50;;;0.40;;
15706;SDS011;7953;54.302;10.128;2024-02-23T02:44:00;2.90;;;0.53;;
15706;SDS011;7953;54.302;10.128;2024-02-23T02:46:27;0.30;;;0.30;;
15706;SDS011;7953;54.302;10.128;2024-02-23T02:48:53;2.20;;;0.57;;
15706;SDS011;7953;54.302;10.128;2024-02-23T02:51:20;1.30;;;0.60;;
15706;SDS011;7953;54.302;10.128;2024-02-23T02:53:47;3.53;;;0.60;;
15706;SDS011;7953;54.302;10.128;2024-02-23T02:56:15;0.60;;;0.43;;
15706;SDS011;7953;54.302;10.128;2024-02-23T02:58:42;1.40;;;0.50;;
15706;SDS011;7953;54.302;10.128;2024-02-23T03:01:09;1.17;;;0.60;;
15706;SDS011;7953;54.302;10.128;2024-02-23T03:03:36;2.83;;;0.53;;
15706;SDS011;7953;54.302;10.128;2024-02-23T03:06:03;2.00;;;0.73;;
15706;SDS011;7953;54.302;10.128;2024-02-23T03:08:30;2.33;;;0.80;;
15706;SDS011;7953;54.302;10.128;2024-02-23T03:10:57;4.43;;;1.23;;
15706;SDS011;7953;54.302;10.128;2024-02-23T03:13:25;2.23;;;0.70;;
15706;SDS011;7953;54.302;10.128;2024-02-23T03:15:52;6.10;;;1.10;;
15706;SDS011;7953;54.302;10.128;2024-02-23T03:18:19;5.30;;;1.83;;
15706;SDS011;7953;54.302;10.128;2024-02-23T03:20:46;8.63;;;1.30;;
15706;SDS011;7953;54.302;10.128;2024-02-23T03:23:13;8.53;;;1.30;;
15706;SDS011;7953;54.302;10.128;2024-02-23T03:25:40;6.93;;;1.47;;
15706;SDS011;7953;54.302;10.128;2024-02-23T03:28:06;5.83;;;1.37;;
15706;SDS011;7953;54.302;10.128;2024-02-23T03:30:35;7.00;;;1.57;;
15706;SDS011;7953;54.302;10.128;2024-02-23T03:33:01;4.00;;;1.17;;
15706;SDS011;7953;54.302;10.128;2024-02-23T03:35:28;5.37;;;1.20;;
15706;SDS011;7953;54.302;10.128;2024-02-23T03:37:55;2.00;;;0.97;;
15706;SDS011;7953;54.302;10.128;2024-02-23T03:40:22;4.10;;;1.10;;
15706;SDS011;7953;54.302;10.128;2024-02-23T03:42:49;5.80;;;1.47;;
15706;SDS011;7953;54.302;10.128;2024-02-23T03:45:16;5.20;;;1.40;;
15706;SDS011;7953;54.302;10.128;2024-02-23T03:47:44;2.37;;;0.83;;
15706;SDS011;7953;54.302;10.128;2024-02-23T03:50:11;3.33;;;0.90;;
15706;SDS011;7953;54.302;10.128;2024-02-23T03:52:38;2.17;;;0.73;;
15706;SDS011;7953;54.302;10.128;2024-02-23T03:55:05;2.90;;;0.80;;
15706;SDS011;7953;54.302;10.128;2024-02-23T03:57:32;2.07;;;0.80;;
15706;SDS011;7953;54.302;10.128;2024-02-23T03:59:59;4.03;;;1.00;;
15706;SDS011;7953;54.302;10.128;2024-02-23T04:02:26;3.47;;;1.30;;
15706;SDS011;7953;54.302;10.128;2024-02-23T04:04:54;8.23;;;1.27;;
15706;SDS011;7953;54.302;10.128;2024-02-23T04:07:21;4.43;;;1.00;;
15706;SDS011;7953;54.302;10.128;2024-02-23T04:09:48;0.70;;;0.57;;
15706;SDS011;7953;54.302;10.128;2024-02-23T04:12:17;1.93;;;0.87;;
15706;SDS011;7953;54.302;10.128;2024-02-23T04:14:44;2.57;;;0.70;;
15706;SDS011;7953;54.302;10.128;2024-02-23T04:17:11;2.53;;;1.10;;
15706;SDS011;7953;54.302;10.128;2024-02-23T04:19:38;2.67;;;1.43;;
15706;SDS011;7953;54.302;10.128;2024-02-23T04:22:07;2.80;;;1.10;;
15706;SDS011;7953;54.302;10.128;2024-02-23T04:24:35;3.17;;;0.80;;
15706;SDS011;7953;54.302;10.128;2024-02-23T04:27:04;4.63;;;1.37;;
15706;SDS011;7953;54.302;10.128;2024-02-23T04:29:31;2.10;;;1.10;;
15706;SDS011;7953;54.302;10.128;2024-02-23T04:31:59;3.60;;;1.07;;
15706;SDS011;7953;54.302;10.128;2024-02-23T04:34:26;1.47;;;0.90;;
15706;SDS011;7953;54.302;10.128;2024-02-23T04:36:53;3.30;;;1.53;;
15706;SDS011;7953;54.302;10.128;2024-02-23T04:39:21;2.13;;;1.50;;
15706;SDS011;7953;54.302;10.128;2024-02-23T04:41:48;1.97;;;0.90;;
15706;SDS011;7953;54.302;10.128;2024-02-23T04:44:15;4.30;;;1.40;;
15706;SDS011;7953;54.302;10.128;2024-02-23T04:46:42;3.47;;;1.23;;
15706;SDS011;7953;54.302;10.128;2024-02-23T04:49:08;3.37;;;1.13;;
15706;SDS011;7953;54.302;10.128;2024-02-23T04:51:38;4.53;;;1.50;;
15706;SDS011;7953;54.302;10.128;2024-02-23T04:54:04;3.80;;;1.20;;
15706;SDS011;7953;54.302;10.128;2024-02-23T04:56:34;4.77;;;1.70;;
15706;SDS011;7953;54.302;10.128;2024-02-23T04:59:00;4.27;;;1.60;;
15706;SDS011;7953;54.302;10.128;2024-02-23T05:01:27;6.50;;;1.40;;
15706;SDS011;7953;54.302;10.128;2024-02-23T05:03:54;3.27;;;1.63;;
15706;SDS011;7953;54.302;10.128;2024-02-23T05:06:21;6.43;;;1.73;;
15706;SDS011;7953;54.302;10.128;2024-02-23T05:08:48;3.47;;;1.57;;
15706;SDS011;7953;54.302;10.128;2024-02-23T05:11:15;2.43;;;1.30;;
15706;SDS011;7953;54.302;10.128;2024-02-23T05:13:43;7.07;;;1.67;;
15706;SDS011;7953;54.302;10.128;2024-02-23T05:16:10;6.23;;;2.00;;
15706;SDS011;7953;54.302;10.128;2024-02-23T05:18:38;8.50;;;1.97;;
15706;SDS011;7953;54.302;10.128;2024-02-23T05:21:05;9.13;;;2.33;;
15706;SDS011;7953;54.302;10.128;2024-02-23T05:23:32;8.53;;;1.80;;
15706;SDS011;7953;54.302;10.128;2024-02-23T05:25:59;7.57;;;2.37;;
15706;SDS011;7953;54.302;10.128;2024-02-23T05:28:26;6.73;;;2.13;;
15706;SDS011;7953;54.302;10.128;2024-02-23T05:30:55;4.23;;;2.20;;
15706;SDS011;7953;54.302;10.128;2024-02-23T05:33:22;7.93;;;1.97;;
15706;SDS011;7953;54.302;10.128;2024-02-23T05:35:49;2.90;;;1.47;;
15706;SDS011;7953;54.302;10.128;2024-02-23T05:38:16;1.87;;;1.50;;
15706;SDS011;7953;54.302;10.128;2024-02-23T05:40:43;7.97;;;2.20;;
15706;SDS011;7953;54.302;10.128;2024-02-23T05:43:10;6.23;;;1.87;;
15706;SDS011;7953;54.302;10.128;2024-02-23T05:45:38;4.87;;;2.10;;
15706;SDS011;7953;54.302;10.128;2024-02-23T05:48:08;6.70;;;1.80;;
15706;SDS011;7953;54.302;10.128;2024-02-23T05:50:35;1.93;;;1.37;;
15706;SDS011;7953;54.302;10.128;2024-02-23T05:53:02;3.50;;;1.80;;
15706;SDS011;7953;54.302;10.128;2024-02-23T05:55:29;4.93;;;1.77;;
15706;SDS011;7953;54.302;10.128;2024-02-23T05:57:56;4.53;;;2.17;;
15706;SDS011;7953;54.302;10.128;2024-02-23T06:00:23;3.60;;;1.73;;
15706;SDS011;7953;54.302;10.128;2024-02-23T06:02:50;4.97;;;1.50;;
15706;SDS011;7953;54.302;10.128;2024-02-23T06:05:18;7.07;;;2.07;;
15706;SDS011;7953;54.302;10.128;2024-02-23T06:07:45;6.67;;;1.57;;
15706;SDS011;7953;54.302;10.128;2024-02-23T06:10:12;4.93;;;1.73;;
15706;SDS011;7953;54.302;10.128;2024-02-23T06:12:39;5.37;;;2.10;;
15706;SDS011;7953;54.302;10.128;2024-02-23T06:15:06;5.20;;;2.07;;
15706;SDS011;7953;54.302;10.128;2024-02-23T06:17:34;4.90;;;2.13;;
15706;SDS011;7953;54.302;10.128;2024-02-23T06:20:01;6.00;;;1.70;;
15706;SDS011;7953;54.302;10.128;2024-02-23T06:22:29;5.80;;;1.77;;
15706;SDS011;7953;54.302;10.128;2024-02-23T06:24:57;3.13;;;1.77;;
15706;SDS011;7953;54.302;10.128;2024-02-23T06:27:24;5.63;;;2.07;;
15706;SDS011;7953;54.302;10.128;2024-02-23T06:29:52;5.93;;;2.30;;
15706;SDS011;7953;54.302;10.128;2024-02-23T06:32:20;6.13;;;1.47;;
15706;SDS011;7953;54.302;10.128;2024-02-23T06:34:47;3.07;;;1.93;;
15706;SDS011;7953;54.302;10.128;2024-02-23T06:37:14;2.53;;;1.20;;
15706;SDS011;7953;54.302;10.128;2024-02-23T06:39:42;4.40;;;1.93;;
15706;SDS011;7953;54.302;10.128;2024-02-23T06:42:09;7.00;;;1.70;;
15706;SDS011;7953;54.302;10.128;2024-02-23T06:44:36;4.60;;;1.60;;
15706;SDS011;7953;54.302;10.128;2024-02-23T06:47:03;6.57;;;1.43;;
15706;SDS011;7953;54.302;10.128;2024-02-23T06:49:31;3.73;;;1.73;;
15706;SDS011;7953;54.302;10.128;2024-02-23T06:51:58;3.77;;;1.87;;
15706;SDS011;7953;54.302;10.128;2024-02-23T06:54:25;6.10;;;1.90;;
15706;SDS011;7953;54.302;10.128;2024-02-23T06:56:53;3.10;;;1.93;;
15706;SDS011;7953;54.302;10.128;2024-02-23T06:59:20;3.67;;;1.90;;
15706;SDS011;7953;54.302;10.128;2024-02-23T07:01:49;3.77;;;2.17;;
15706;SDS011;7953;54.302;10.128;2024-02-23T07:04:16;3.17;;;1.83;;
15706;SDS011;7953;54.302;10.128;2024-02-23T07:06:43;4.57;;;1.83;;
15706;SDS011;7953;54.302;10.128;2024-02-23T07:09:10;4.37;;;1.50;;
15706;SDS011;7953;54.302;10.128;2024-02-23T07:11:38;3.93;;;1.87;;
15706;SDS011;7953;54.302;10.128;2024-02-23T07:14:07;8.60;;;2.10;;
15706;SDS011;7953;54.302;10.128;2024-02-23T07:16:37;9.77;;;2.80;;
15706;SDS011;7953;54.302;10.128;2024-02-23T07:19:04;5.33;;;2.30;;
15706;SDS011;7953;54.302;10.128;2024-02-23T07:21:31;4.57;;;2.27;;
15706;SDS011;7953;54.302;10.128;2024-02-23T07:23:58;5.63;;;1.70;;
15706;SDS011;7953;54.302;10.128;2024-02-23T07:26:26;2.73;;;1.40;;
15706;SDS011;7953;54.302;10.128;2024-02-23T07:28:54;6.10;;;2.43;;
15706;SDS011;7953;54.302;10.128;2024-02-23T07:31:22;7.80;;;2.13;;
15706;SDS011;7953;54.302;10.128;2024-02-23T07:33:49;6.40;;;1.70;;
15706;SDS011;7953;54.302;10.128;2024-02-23T07:36:16;4.50;;;1.60;;
15706;SDS011;7953;54.302;10.128;2024-02-23T07:38:43;2.07;;;1.33;;
15706;SDS011;7953;54.302;10.128;2024-02-23T07:41:10;4.63;;;1.50;;
15706;SDS011;7953;54.302;10.128;2024-02-23T07:43:38;5.47;;;1.63;;
15706;SDS011;7953;54.302;10.128;2024-02-23T07:46:05;3.90;;;2.20;;
15706;SDS011;7953;54.302;10.128;2024-02-23T07:48:35;6.37;;;3.20;;
15706;SDS011;7953;54.302;10.128;2024-02-23T07:51:02;3.43;;;2.00;;
15706;SDS011;7953;54.302;10.128;2024-02-23T07:53:29;5.87;;;1.73;;
15706;SDS011;7953;54.302;10.128;2024-02-23T07:55:56;7.23;;;3.13;;
15706;SDS011;7953;54.302;10.128;2024-02-23T07:58:27;7.27;;;2.23;;
15706;SDS011;7953;54.302;10.128;2024-02-23T08:00:53;7.97;;;2.23;;
15706;SDS011;7953;54.302;10.128;2024-02-23T08:03:20;4.63;;;2.00;;
15706;SDS011;7953;54.302;10.128;2024-02-23T08:05:48;5.93;;;2.23;;
15706;SDS011;7953;54.302;10.128;2024-02-23T08:08:15;5.20;;;1.90;;
15706;SDS011;7953;54.302;10.128;2024-02-23T08:10:42;4.37;;;2.30;;
15706;SDS011;7953;54.302;10.128;2024-02-23T08:13:09;6.10;;;1.80;;
15706;SDS011;7953;54.302;10.128;2024-02-23T08:15:36;5.80;;;1.87;;
15706;SDS011;7953;54.302;10.128;2024-02-23T08:18:03;8.10;;;3.73;;
15706;SDS011;7953;54.302;10.128;2024-02-23T08:20:30;6.90;;;2.73;;
15706;SDS011;7953;54.302;10.128;2024-02-23T08:22:58;6.00;;;3.50;;
15706;SDS011;7953;54.302;10.128;2024-02-23T08:25:25;5.23;;;2.20;;
15706;SDS011;7953;54.302;10.128;2024-02-23T08:27:53;6.10;;;2.57;;
15706;SDS011;7953;54.302;10.128;2024-02-23T08:30:20;2.90;;;1.87;;
15706;SDS011;7953;54.302;10.128;2024-02-23T08:32:47;6.87;;;3.27;;
15706;SDS011;7953;54.302;10.128;2024-02-23T08:35:14;3.77;;;1.93;;
15706;SDS011;7953;54.302;10.128;2024-02-23T08:37:41;4.27;;;1.80;;
15706;SDS011;7953;54.302;10.128;2024-02-23T08:40:10;4.63;;;2.13;;
15706;SDS011;7953;54.302;10.128;2024-02-23T08:42:37;4.90;;;2.13;;
15706;SDS011;7953;54.302;10.128;2024-02-23T08:45:04;3.27;;;2.00;;
15706;SDS011;7953;54.302;10.128;2024-02-23T08:47:32;6.60;;;2.33;;
15706;SDS011;7953;54.302;10.128;2024-02-23T08:50:00;4.90;;;2.50;;
15706;SDS011;7953;54.302;10.128;2024-02-23T08:52:27;7.77;;;2.73;;
15706;SDS011;7953;54.302;10.128;2024-02-23T08:54:55;3.63;;;2.33;;
15706;SDS011;7953;54.302;10.128;2024-02-23T08:57:23;2.80;;;2.10;;
15706;SDS011;7953;54.302;10.128;2024-02-23T08:59:51;6.57;;;2.80;;
15706;SDS011;7953;54.302;10.128;2024-02-23T09:02:18;10.97;;;3.67;;
15706;SDS011;7953;54.302;10.128;2024-02-23T09:04:45;7.80;;;3.33;;
15706;SDS011;7953;54.302;10.128;2024-02-23T09:07:12;8.23;;;4.33;;
15706;SDS011;7953;54.302;10.128;2024-02-23T09:09:39;12.77;;;5.13;;
15706;SDS011;7953;54.302;10.128;2024-02-23T09:12:06;13.13;;;6.63;;
15706;SDS011;7953;54.302;10.128;2024-02-23T09:14:37;11.23;;;5.87;;
15706;SDS011;7953;54.302;10.128;2024-02-23T09:17:04;22.73;;;11.20;;
15706;SDS011;7953;54.302;10.128;2024-02-23T09:19:33;7.90;;;5.20;;
15706;SDS011;7953;54.302;10.128;2024-02-23T09:22:00;17.00;;;8.27;;
15706;SDS011;7953;54.302;10.128;2024-02-23T09:24:27;6.47;;;3.27;;
15706;SDS011;7953;54.302;10.128;2024-02-23T09:26:54;5.90;;;2.63;;
15706;SDS011;7953;54.302;10.128;2024-02-23T09:29:21;12.10;;;4.17;;
15706;SDS011;7953;54.302;10.128;2024-02-23T09:31:49;10.10;;;5.20;;
15706;SDS011;7953;54.302;10.128;2024-02-23T09:34:17;9.00;;;3.23;;
15706;SDS011;7953;54.302;10.128;2024-02-23T09:36:44;5.83;;;2.43;;
15706;SDS011;7953;54.302;10.128;2024-02-23T09:39:11;4.23;;;1.93;;
15706;SDS011;7953;54.302;10.128;2024-02-23T09:41:38;4.30;;;2.00;;
15706;SDS011;7953;54.302;10.128;2024-02-23T09:44:05;5.93;;;2.53;;
15706;SDS011;7953;54.302;10.128;2024-02-23T09:46:34;5.40;;;2.20;;
15706;SDS011;7953;54.302;10.128;2024-02-23T09:49:04;4.00;;;2.50;;
15706;SDS011;7953;54.302;10.128;2024-02-23T09:51:33;7.33;;;2.70;;
15706;SDS011;7953;54.302;10.128;2024-02-23T09:54:02;5.70;;;2.20;;
15706;SDS011;7953;54.302;10.128;2024-02-23T09:56:29;4.57;;;2.37;;
15706;SDS011;7953;54.302;10.128;2024-02-23T09:58:59;7.13;;;2.40;;
15706;SDS011;7953;54.302;10.128;2024-02-23T10:01:27;3.77;;;1.90;;
15706;SDS011;7953;54.302;10.128;2024-02-23T10:03:57;4.20;;;2.10;;
15706;SDS011;7953;54.302;10.128;2024-02-23T10:06:26;5.50;;;2.00;;
15706;SDS011;7953;54.302;10.128;2024-02-23T10:08:53;2.80;;;1.60;;
15706;SDS011;7953;54.302;10.128;2024-02-23T10:11:20;4.73;;;1.97;;
15706;SDS011;7953;54.302;10.128;2024-02-23T10:13:48;7.13;;;2.00;;
15706;SDS011;7953;54.302;10.128;2024-02-23T10:16:15;5.73;;;2.00;;
15706;SDS011;7953;54.302;10.128;2024-02-23T10:18:42;5.43;;;2.10;;
15706;SDS011;7953;54.302;10.128;2024-02-23T10:21:09;6.83;;;2.83;;
15706;SDS011;7953;54.302;10.128;2024-02-23T10:23:38;5.17;;;1.90;;
15706;SDS011;7953;54.302;10.128;2024-02-23T10:26:05;4.77;;;1.70;;
15706;SDS011;7953;54.302;10.128;2024-02-23T10:28:33;4.27;;;1.90;;
15706;SDS011;7953;54.302;10.128;2024-02-23T10:31:00;3.90;;;1.80;;
15706;SDS011;7953;54.302;10.128;2024-02-23T10:33:28;6.00;;;2.17;;
15706;SDS011;7953;54.302;10.128;2024-02-23T10:35:56;4.80;;;1.90;;
15706;SDS011;7953;54.302;10.128;2024-02-23T10:38:23;6.53;;;2.07;;
15706;SDS011;7953;54.302;10.128;2024-02-23T10:40:54;7.43;;;1.97;;
15706;SDS011;7953;54.302;10.128;2024-02-23T10:43:22;3.97;;;1.43;;
15706;SDS011;7953;54.302;10.128;2024-02-23T10:45:55;2.40;;;1.60;;
15706;SDS011;7953;54.302;10.128;2024-02-23T10:48:24;6.90;;;1.77;;
15706;SDS011;7953;54.302;10.128;2024-02-23T10:50:53;6.67;;;2.00;;
15706;SDS011;7953;54.302;10.128;2024-02-23T10:53:21;3.90;;;2.03;;
15706;SDS011;7953;54.302;10.128;2024-02-23T10:55:51;5.97;;;1.97;;
15706;SDS011;7953;54.302;10.128;2024-02-23T10:58:22;6.30;;;2.07;;
15706;SDS011;7953;54.302;10.128;2024-02-23T11:00:49;4.90;;;2.10;;
15706;SDS011;7953;54.302;10.128;2024-02-23T11:03:16;7.67;;;2.27;;
15706;SDS011;7953;54.302;10.128;2024-02-23T11:05:47;5.47;;;1.73;;
15706;SDS011;7953;54.302;10.128;2024-02-23T11:08:14;4.73;;;2.20;;
15706;SDS011;7953;54.302;10.128;2024-02-23T11:10:48;2.73;;;1.70;;
15706;SDS011;7953;54.302;10.128;2024-02-23T11:13:18;3.00;;;1.83;;
15706;SDS011;7953;54.302;10.128;2024-02-23T11:15:45;5.40;;;2.23;;
15706;SDS011;7953;54.302;10.128;2024-02-23T11:18:21;4.33;;;2.23;;
15706;SDS011;7953;54.302;10.128;2024-02-23T11:20:53;5.53;;;2.00;;
15706;SDS011;7953;54.302;10.128;2024-02-23T11:23:21;5.73;;;1.63;;
15706;SDS011;7953;54.302;10.128;2024-02-23T11:25:58;4.20;;;1.97;;
15706;SDS011;7953;54.302;10.128;2024-02-23T11:28:29;8.50;;;1.90;;
15706;SDS011;7953;54.302;10.128;2024-02-23T11:30:57;7.53;;;1.70;;
15706;SDS011;7953;54.302;10.128;2024-02-23T11:33:27;6.47;;;1.97;;
15706;SDS011;7953;54.302;10.128;2024-02-23T11:36:04;10.33;;;2.50;;
15706;SDS011;7953;54.302;10.128;2024-02-23T11:38:32;6.53;;;2.07;;
15706;SDS011;7953;54.302;10.128;2024-02-23T11:40:59;3.83;;;2.10;;
15706;SDS011;7953;54.302;10.128;2024-02-23T11:43:26;3.63;;;1.60;;
15706;SDS011;7953;54.302;10.128;2024-02-23T11:45:54;3.90;;;1.90;;
15706;SDS011;7953;54.302;10.128;2024-02-23T11:48:22;5.97;;;1.93;;
15706;SDS011;7953;54.302;10.128;2024-02-23T11:50:49;8.00;;;2.73;;
15706;SDS011;7953;54.302;10.128;2024-02-23T11:53:17;4.77;;;1.83;;
15706;SDS011;7953;54.302;10.128;2024-02-23T11:55:46;7.20;;;1.90;;
15706;SDS011;7953;54.302;10.128;2024-02-23T11:58:15;3.60;;;1.63;;
15706;SDS011;7953;54.302;10.128;2024-02-23T12:00:43;4.83;;;1.40;;
15706;SDS011;7953;54.302;10.128;2024-02-23T12:03:10;3.20;;;1.67;;
15706;SDS011;7953;54.302;10.128;2024-02-23T12:05:37;3.57;;;1.60;;
15706;SDS011;7953;54.302;10.128;2024-02-23T12:08:04;4.63;;;1.93;;
15706;SDS011;7953;54.302;10.128;2024-02-23T12:10:32;6.43;;;2.40;;
15706;SDS011;7953;54.302;10.128;2024-02-23T12:12:58;5.33;;;2.40;;
15706;SDS011;7953;54.302;10.128;2024-02-23T12:15:25;7.03;;;2.57;;
15706;SDS011;7953;54.302;10.128;2024-02-23T12:17:57;10.47;;;4.47;;
15706;SDS011;7953;54.302;10.128;2024-02-23T12:20:24;7.33;;;3.83;;
15706;SDS011;7953;54.302;10.128;2024-02-23T12:22:54;7.10;;;2.27;;
15706;SDS011;7953;54.302;10.128;2024-02-23T12:25:22;5.80;;;2.83;;
15706;SDS011;7953;54.302;10.128;2024-02-23T12:27:53;5.90;;;1.60;;
15706;SDS011;7953;54.302;10.128;2024-02-23T12:30:20;6.23;;;2.83;;
15706;SDS011;7953;54.302;10.128;2024-02-23T12:32:47;3.73;;;1.83;;
15706;SDS011;7953;54.302;10.128;2024-02-23T12:35:16;4.47;;;1.90;;
15706;SDS011;7953;54.302;10.128;2024-02-23T12:37:43;3.10;;;1.47;;
15706;SDS011;7953;54.302;10.128;2024-02-23T12:40:10;6.50;;;3.00;;
15706;SDS011;7953;54.302;10.128;2024-02-23T12:42:37;4.63;;;1.93;;
15706;SDS011;7953;54.302;10.128;2024-02-23T12:45:04;6.53;;;3.20;;
15706;SDS011;7953;54.302;10.128;2024-02-23T12:47:32;10.83;;;6.23;;
15706;SDS011;7953;54.302;10.128;2024-02-23T12:49:58;6.20;;;2.03;;
15706;SDS011;7953;54.302;10.128;2024-02-23T12:52:27;5.87;;;2.50;;
15706;SDS011;7953;54.302;10.128;2024-02-23T12:54:53;17.90;;;10.87;;
15706;SDS011;7953;54.302;10.128;2024-02-23T12:57:20;4.53;;;2.17;;
15706;SDS011;7953;54.302;10.128;2024-02-23T12:59:47;10.43;;;5.13;;
15706;SDS011;7953;54.302;10.128;2024-02-23T13:02:14;6.83;;;4.33;;
15706;SDS011;7953;54.302;10.128;2024-02-23T13:04:41;10.00;;;4.67;;
15706;SDS011;7953;54.302;10.128;2024-02-23T13:07:13;3.27;;;1.37;;
15706;SDS011;7953;54.302;10.128;2024-02-23T13:09:41;5.33;;;2.43;;
15706;SDS011;7953;54.302;10.128;2024-02-23T13:12:08;6.03;;;2.80;;
15706;SDS011;7953;54.302;10.128;2024-02-23T13:14:35;8.50;;;2.70;;
15706;SDS011;7953;54.302;10.128;2024-02-23T13:17:02;7.67;;;3.53;;
15706;SDS011;7953;54.302;10.128;2024-02-23T13:19:29;15.10;;;6.83;;
15706;SDS011;7953;54.302;10.128;2024-02-23T13:21:56;8.10;;;3.27;;
15706;SDS011;7953;54.302;10.128;2024-02-23T13:24:25;8.17;;;3.70;;
15706;SDS011;7953;54.302;10.128;2024-02-23T13:26:53;11.13;;;5.27;;
15706;SDS011;7953;54.302;10.128;2024-02-23T13:29:20;12.53;;;4.67;;
15706;SDS011;7953;54.302;10.128;2024-02-23T13:31:47;7.30;;;2.60;;
15706;SDS011;7953;54.302;10.128;2024-02-23T13:34:14;5.37;;;2.30;;
15706;SDS011;7953;54.302;10.128;2024-02-23T13:36:42;9.50;;;6.53;;
15706;SDS011;7953;54.302;10.128;2024-02-23T13:39:09;6.73;;;3.00;;
15706;SDS011;7953;54.302;10.128;2024-02-23T13:41:35;2.43;;;1.77;;
15706;SDS011;7953;54.302;10.128;2024-02-23T13:44:04;14.77;;;9.10;;
15706;SDS011;7953;54.302;10.128;2024-02-23T13:46:31;9.37;;;4.60;;
15706;SDS011;7953;54.302;10.128;2024-02-23T13:49:02;5.13;;;3.60;;
15706;SDS011;7953;54.302;10.128;2024-02-23T13:51:30;6.93;;;4.53;;
15706;SDS011;7953;54.302;10.128;2024-02-23T13:53:57;3.80;;;1.90;;
15706;SDS011;7953;54.302;10.128;2024-02-23T13:56:24;4.63;;;2.60;;
15706;SDS011;7953;54.302;10.128;2024-02-23T13:58:51;3.10;;;1.97;;
15706;SDS011;7953;54.302;10.128;2024-02-23T14:01:19;7.77;;;6.20;;
15706;SDS011;7953;54.302;10.128;2024-02-23T14:03:46;3.23;;;1.70;;
15706;SDS011;7953;54.302;10.128;2024-02-23T14:06:13;2.87;;;2.30;;
15706;SDS011;7953;54.302;10.128;2024-02-23T14:08:40;1.33;;;1.10;;
15706;SDS011;7953;54.302;10.128;2024-02-23T14:11:08;2.90;;;1.87;;
15706;SDS011;7953;54.302;10.128;2024-02-23T14:13:34;2.97;;;1.77;;
15706;SDS011;7953;54.302;10.128;2024-02-23T14:16:01;5.33;;;1.60;;
15706;SDS011;7953;54.302;10.128;2024-02-23T14:18:31;3.40;;;2.27;;
15706;SDS011;7953;54.302;10.128;2024-02-23T14:21:02;4.50;;;1.13;;
15706;SDS011;7953;54.302;10.128;2024-02-23T14:23:29;5.70;;;1.80;;
15706;SDS011;7953;54.302;10.128;2024-02-23T14:25:55;2.10;;;1.30;;
15706;SDS011;7953;54.302;10.128;2024-02-23T14:28:22;1.63;;;1.10;;
15706;SDS011;7953;54.302;10.128;2024-02-23T14:30:49;3.93;;;1.40;;
15706;SDS011;7953;54.302;10.128;2024-02-23T14:33:16;4.20;;;1.50;;
15706;SDS011;7953;54.302;10.128;2024-02-23T14:35:44;3.23;;;1.33;;
15706;SDS011;7953;54.302;10.128;2024-02-23T14:38:11;1.90;;;1.10;;
15706;SDS011;7953;54.302;10.128;2024-02-23T14:40:38;1.63;;;1.37;;
15706;SDS011;7953;54.302;10.128;2024-02-23T14:43:04;1.10;;;1.00;;
15706;SDS011;7953;54.302;10.128;2024-02-23T14:45:31;4.63;;;1.83;;
15706;SDS011;7953;54.302;10.128;2024-02-23T14:47:58;1.20;;;1.10;;
15706;SDS011;7953;54.302;10.128;2024-02-23T14:50:25;2.47;;;1.00;;